createdAt,value
2019-05-15T00:01:03.884Z,100662.20
2019-05-15T00:03:33.801Z,100671.21
2019-05-15T00:06:04.980Z,100670.38
2019-05-15T00:08:34.884Z,100671.20
2019-05-15T00:11:04.873Z,100669.91
2019-05-15T00:13:35.965Z,100655.17
2019-05-15T00:16:08.257Z,100653.06
2019-05-15T00:18:38.991Z,100667.06
2019-05-15T00:21:09.552Z,100668.63
2019-05-15T00:23:39.389Z,100715.89
2019-05-15T00:26:09.587Z,100713.73
2019-05-15T00:28:39.660Z,100696.39
2019-05-15T00:31:09.639Z,100654.00
2019-05-15T00:33:39.648Z,100666.34
2019-05-15T00:36:09.855Z,100695.20
2019-05-15T00:38:39.626Z,100693.30
2019-05-15T00:41:10.752Z,100698.51
2019-05-15T00:43:40.627Z,100706.83
2019-05-15T00:46:10.580Z,100719.78
2019-05-15T00:48:40.498Z,100716.92
2019-05-15T00:51:14.681Z,100750.31
2019-05-15T00:53:43.297Z,100734.63
2019-05-15T00:56:13.214Z,100721.92
2019-05-15T00:58:43.176Z,100692.34
2019-05-15T01:01:13.056Z,100711.22
2019-05-15T01:03:42.968Z,100748.90
2019-05-15T01:06:12.924Z,100741.50
2019-05-15T01:08:42.803Z,100762.30
2019-05-15T01:11:12.718Z,100741.40
2019-05-15T01:13:42.687Z,100716.78
2019-05-15T01:16:12.549Z,100718.34
2019-05-15T01:18:42.461Z,100706.33
2019-05-15T01:21:12.431Z,100683.38
2019-05-15T01:23:42.301Z,100683.16
2019-05-15T01:26:12.220Z,100660.50
2019-05-15T01:28:42.197Z,100637.67
2019-05-15T01:31:12.064Z,100618.25
2019-05-15T01:33:41.981Z,100616.53
2019-05-15T01:36:11.929Z,100604.53
2019-05-15T01:38:41.813Z,100581.88
2019-05-15T01:41:11.727Z,100557.09
2019-05-15T01:43:41.689Z,100560.89
2019-05-15T01:46:11.561Z,100568.48
2019-05-15T01:48:41.481Z,100578.11
2019-05-15T01:51:11.433Z,100555.05
2019-05-15T01:53:41.206Z,100540.95
2019-05-15T01:56:11.009Z,100535.02
2019-05-15T01:58:40.899Z,100528.63
2019-05-15T02:01:10.767Z,100510.56
2019-05-15T02:03:40.494Z,100532.06
2019-05-15T02:06:10.464Z,100542.00
2019-05-15T02:08:40.325Z,100547.84
2019-05-15T02:11:10.245Z,100547.56
2019-05-15T02:13:40.210Z,100576.06
2019-05-15T02:16:10.085Z,100599.80
2019-05-15T02:18:39.998Z,100643.48
2019-05-15T02:21:10.583Z,100668.39
2019-05-15T02:23:40.470Z,100670.53
2019-05-15T02:26:10.359Z,100682.17
2019-05-15T02:28:40.312Z,100657.95
2019-05-15T02:31:10.760Z,100640.86
2019-05-15T02:33:42.161Z,100629.79
2019-05-15T02:36:12.287Z,100628.56
2019-05-15T02:38:42.201Z,100631.17
2019-05-15T02:41:12.463Z,100618.11
2019-05-15T02:43:42.277Z,100604.63
2019-05-15T02:46:12.146Z,100599.04
2019-05-15T02:48:42.066Z,100599.63
2019-05-15T02:51:12.015Z,100592.66
2019-05-15T02:53:41.897Z,100585.13
2019-05-15T02:56:11.699Z,100595.20
2019-05-15T02:58:41.422Z,100582.06
2019-05-15T03:01:11.273Z,100581.89
2019-05-15T03:03:41.337Z,100576.88
2019-05-15T03:06:11.192Z,100566.11
2019-05-15T03:08:41.272Z,100568.51
2019-05-15T03:11:11.287Z,100573.73
2019-05-15T03:13:42.710Z,100578.23
2019-05-15T03:16:12.870Z,100575.94
2019-05-15T03:18:42.888Z,100579.13
2019-05-15T03:21:13.941Z,100580.43
2019-05-15T03:23:43.771Z,100577.41
2019-05-15T03:26:13.687Z,100590.47
2019-05-15T03:28:43.655Z,100586.64
2019-05-15T03:31:35.737Z,100593.17
2019-05-15T03:33:47.403Z,100602.17
2019-05-15T03:36:23.199Z,100600.89
2019-05-15T03:38:49.945Z,100590.18
2019-05-15T03:41:19.980Z,100602.67
2019-05-15T03:43:51.866Z,100624.30
2019-05-15T03:46:21.643Z,100631.52
2019-05-15T03:48:51.643Z,100618.33
2019-05-15T03:51:22.781Z,100616.63
2019-05-15T03:53:52.753Z,100585.68
2019-05-15T03:56:22.702Z,100591.31
2019-05-15T03:58:52.737Z,100614.09
2019-05-15T04:01:33.532Z,100607.09
2019-05-15T04:03:54.621Z,100618.59
2019-05-15T04:06:25.858Z,100620.45
2019-05-15T04:08:58.551Z,100605.41
2019-05-15T04:11:29.387Z,100615.56
2019-05-15T04:14:00.752Z,100643.98
2019-05-15T04:16:30.763Z,100658.58
2019-05-15T04:19:00.580Z,100664.53
2019-05-15T04:21:32.909Z,100692.78
2019-05-15T04:24:03.681Z,100696.30
2019-05-15T04:26:39.461Z,100656.37
2019-05-15T04:29:09.792Z,100608.49
2019-05-15T04:31:51.903Z,100601.69
2019-05-15T04:34:12.781Z,100610.67
2019-05-15T04:36:44.608Z,100621.20
2019-05-15T04:39:14.352Z,100581.22
2019-05-15T04:41:44.202Z,100603.20
2019-05-15T04:44:14.266Z,100598.62
2019-05-15T04:46:45.249Z,100636.03
2019-05-15T04:49:15.218Z,100639.04
2019-05-15T04:51:45.058Z,100679.85
2019-05-15T04:54:14.958Z,100665.99
2019-05-15T04:56:44.833Z,100620.41
2019-05-15T04:59:19.245Z,100622.25
2019-05-15T05:01:51.275Z,100593.98
2019-05-15T05:04:19.231Z,100597.75
2019-05-15T05:06:49.573Z,100607.48
2019-05-15T05:09:19.924Z,100593.79
2019-05-15T05:11:50.037Z,100591.15
2019-05-15T05:14:20.178Z,100577.67
2019-05-15T05:16:49.978Z,100561.41
2019-05-15T05:19:19.991Z,100573.75
2019-05-15T05:21:49.895Z,100602.00
2019-05-15T05:24:19.722Z,100603.52
2019-05-15T05:26:49.536Z,100625.87
2019-05-15T05:29:19.412Z,100641.78
2019-05-15T05:31:49.374Z,100624.95
2019-05-15T05:34:19.538Z,100614.69
2019-05-15T05:36:49.410Z,100594.87
2019-05-15T05:39:20.039Z,100615.26
2019-05-15T05:41:49.976Z,100640.94
2019-05-15T05:44:21.366Z,100622.49
2019-05-15T05:46:51.168Z,100594.16
2019-05-15T05:49:20.935Z,100570.58
2019-05-15T05:51:51.007Z,100566.72
2019-05-15T05:54:20.780Z,100564.32
2019-05-15T05:56:50.687Z,100564.77
2019-05-15T05:59:20.684Z,100565.19
2019-05-15T06:01:50.573Z,100583.98
2019-05-15T06:04:20.493Z,100608.92
2019-05-15T06:07:05.928Z,100630.88
2019-05-15T06:09:21.969Z,100615.70
2019-05-15T06:11:51.832Z,100615.70
2019-05-15T06:14:21.746Z,100613.81
2019-05-15T06:16:51.685Z,100624.80
2019-05-15T06:19:21.754Z,100631.00
2019-05-15T06:21:56.871Z,100635.95
2019-05-15T06:24:23.436Z,100635.95
2019-05-15T06:26:53.249Z,100620.91
2019-05-15T06:29:23.212Z,100648.37
2019-05-15T06:31:53.084Z,100661.90
2019-05-15T06:34:23.009Z,100657.13
2019-05-15T06:36:52.885Z,100665.58
2019-05-15T06:39:22.771Z,100665.58
2019-05-15T06:41:52.687Z,100687.55
2019-05-15T06:44:23.860Z,100689.47
2019-05-15T06:46:53.605Z,100700.78
2019-05-15T06:49:23.638Z,100694.25
2019-05-15T06:51:54.705Z,100694.25
2019-05-15T06:54:24.687Z,100707.25
2019-05-15T06:56:54.621Z,100734.00
2019-05-15T06:59:24.568Z,100741.72
2019-05-15T07:01:54.638Z,100741.72
2019-05-15T07:04:24.579Z,100733.66
2019-05-15T07:06:54.423Z,100704.09
2019-05-15T07:09:24.616Z,100695.11
2019-05-15T07:11:54.629Z,100718.06
2019-05-15T07:14:24.709Z,100705.42
2019-05-15T07:16:54.835Z,100705.42
2019-05-15T07:19:24.809Z,100710.98
2019-05-15T07:21:58.117Z,100710.98
2019-05-15T07:24:28.924Z,100706.11
2019-05-15T07:26:59.328Z,100667.02
2019-05-15T07:29:29.537Z,100651.09
2019-05-15T07:31:59.463Z,100630.88
2019-05-15T07:34:29.318Z,100606.67
2019-05-15T07:36:59.414Z,100583.16
2019-05-15T07:39:30.604Z,100587.18
2019-05-15T07:42:00.593Z,100600.13
2019-05-15T07:44:30.513Z,100595.88
2019-05-15T07:47:01.591Z,100608.78
2019-05-15T07:49:31.494Z,100609.64
2019-05-15T07:52:01.405Z,100603.05
2019-05-15T07:54:31.344Z,100624.59
2019-05-15T07:57:01.242Z,100607.07
2019-05-15T07:59:31.229Z,100612.11
2019-05-15T08:02:01.130Z,100630.62
2019-05-15T08:04:33.088Z,100665.89
2019-05-15T08:07:02.480Z,100665.08
2019-05-15T08:09:32.263Z,100672.84
2019-05-15T08:12:04.214Z,100672.84
2019-05-15T08:14:34.169Z,100684.34
2019-05-15T08:17:04.104Z,100717.35
2019-05-15T08:19:34.270Z,100715.95
2019-05-15T08:22:04.264Z,100689.77
2019-05-15T08:24:34.496Z,100675.88
2019-05-15T08:27:04.357Z,100686.06
2019-05-15T08:29:34.488Z,100690.97
2019-05-15T08:32:04.507Z,100698.38
2019-05-15T08:34:34.479Z,100684.39
2019-05-15T08:37:07.834Z,100680.45
2019-05-15T08:39:38.172Z,100715.23
2019-05-15T08:42:08.152Z,100717.57
2019-05-15T08:44:39.451Z,100706.17
2019-05-15T08:47:09.402Z,100712.85
2019-05-15T08:49:41.048Z,100724.34
2019-05-15T08:52:12.877Z,100740.32
2019-05-15T08:54:43.409Z,100744.44
2019-05-15T08:57:13.291Z,100723.80
2019-05-15T08:59:43.227Z,100703.95
2019-05-15T09:02:13.100Z,100700.73
2019-05-15T09:04:43.014Z,100720.27
2019-05-15T09:07:12.936Z,100715.88
2019-05-15T09:09:43.111Z,100685.73
2019-05-15T09:12:13.081Z,100708.88
2019-05-15T09:14:44.038Z,100699.52
2019-05-15T09:17:13.996Z,100702.75
2019-05-15T09:19:43.867Z,100716.59
2019-05-15T09:22:13.817Z,100716.66
2019-05-15T09:24:43.926Z,100708.47
2019-05-15T09:27:13.807Z,100706.34
2019-05-15T09:29:45.108Z,100742.78
2019-05-15T09:32:15.155Z,100720.80
2019-05-15T09:34:51.746Z,100727.24
2019-05-15T09:37:18.065Z,100731.31
2019-05-15T09:39:49.001Z,100731.31
2019-05-15T09:42:19.000Z,100728.63
2019-05-15T09:44:48.979Z,100725.20
2019-05-15T09:47:18.981Z,100746.73
2019-05-15T09:49:48.852Z,100780.78
2019-05-15T09:52:22.545Z,100780.78
2019-05-15T09:54:50.251Z,100760.20
2019-05-15T09:57:20.004Z,100757.58
2019-05-15T09:59:49.637Z,100748.97
2019-05-15T10:02:19.624Z,100745.84
2019-05-15T10:05:05.114Z,100756.86
2019-05-15T10:07:20.556Z,100768.33
2019-05-15T10:09:52.318Z,100764.91
2019-05-15T10:12:21.976Z,100788.39
2019-05-15T10:14:51.825Z,100789.55
2019-05-15T10:17:21.727Z,100761.69
2019-05-15T10:19:51.554Z,100754.73
2019-05-15T10:22:21.287Z,100730.38
2019-05-15T10:24:51.195Z,100700.12
2019-05-15T10:27:21.595Z,100695.64
2019-05-15T10:29:51.356Z,100734.43
2019-05-15T10:32:21.131Z,100754.97
2019-05-15T10:34:51.945Z,100764.09
2019-05-15T10:37:21.682Z,100741.98
2019-05-15T10:39:52.851Z,100723.27
2019-05-15T10:42:24.526Z,100745.98
2019-05-15T10:44:54.682Z,100754.87
2019-05-15T10:47:24.502Z,100761.17
2019-05-15T10:49:54.366Z,100769.97
2019-05-15T10:52:24.121Z,100769.78
2019-05-15T10:54:54.170Z,100753.37
2019-05-15T10:57:24.073Z,100755.22
2019-05-15T10:59:53.998Z,100750.02
2019-05-15T11:02:23.922Z,100787.31
2019-05-15T11:04:53.880Z,100788.11
2019-05-15T11:07:23.651Z,100782.84
2019-05-15T11:09:53.567Z,100783.42
2019-05-15T11:12:23.516Z,100784.60
2019-05-15T11:14:53.296Z,100771.98
2019-05-15T11:17:24.537Z,100766.38
2019-05-15T11:19:54.449Z,100716.88
2019-05-15T11:22:24.593Z,100716.88
2019-05-15T11:24:54.501Z,100704.00
2019-05-15T11:27:24.404Z,100694.17
2019-05-15T11:29:55.563Z,100689.65
2019-05-15T11:32:25.364Z,100680.23
2019-05-15T11:34:55.185Z,100695.26
2019-05-15T11:37:25.200Z,100683.86
2019-05-15T11:39:55.034Z,100688.86
2019-05-15T11:42:24.921Z,100695.61
2019-05-15T11:44:54.883Z,100681.36
2019-05-15T11:47:24.845Z,100669.67
2019-05-15T11:49:54.665Z,100663.45
2019-05-15T11:52:24.637Z,100678.05
2019-05-15T11:54:54.345Z,100681.59
2019-05-15T11:57:37.270Z,100669.67
2019-05-15T11:59:59.466Z,100662.49
2019-05-15T12:02:29.374Z,100635.86
2019-05-15T12:04:59.307Z,100649.88
2019-05-15T12:07:29.315Z,100665.96
2019-05-15T12:10:00.281Z,100674.37
2019-05-15T12:12:32.076Z,100657.19
2019-05-15T12:15:01.778Z,100662.77
2019-05-15T12:17:34.232Z,100690.39
2019-05-15T12:20:06.540Z,100690.27
2019-05-15T12:22:35.611Z,100666.35
2019-05-15T12:25:09.827Z,100684.50
2019-05-15T12:27:40.044Z,100716.64
2019-05-15T12:30:11.785Z,100700.38
2019-05-15T12:32:42.968Z,100707.59
2019-05-15T12:35:13.283Z,100715.50
2019-05-15T12:37:43.182Z,100688.82
2019-05-15T13:00:30.962Z,100664.39
2019-05-15T13:03:00.779Z,100646.42
2019-05-15T13:05:32.483Z,100661.64
2019-05-15T13:08:02.041Z,100665.36
2019-05-15T13:10:31.851Z,100659.33
2019-05-15T13:13:05.304Z,100646.78
2019-05-15T13:15:33.657Z,100630.20
2019-05-15T13:18:03.461Z,100607.99
2019-05-15T13:20:33.300Z,100581.78
2019-05-15T13:23:03.246Z,100634.33
2019-05-15T13:25:33.216Z,100580.73
2019-05-15T13:28:03.002Z,100548.83
2019-05-15T13:30:37.667Z,100546.43
2019-05-15T13:33:05.811Z,100524.61
2019-05-15T13:35:37.920Z,100534.45
2019-05-15T13:38:10.021Z,100610.52
2019-05-15T13:40:42.150Z,100636.80
2019-05-15T13:43:10.093Z,100625.20
2019-05-15T13:45:39.946Z,100641.66
2019-05-15T13:48:09.675Z,100651.73
2019-05-15T13:50:40.610Z,100653.75
2019-05-15T13:53:11.249Z,100634.52
2019-05-15T13:55:42.817Z,100618.13
2019-05-15T13:58:12.784Z,100630.21
2019-05-15T14:00:42.597Z,100669.39
2019-05-15T14:03:12.357Z,100651.43
2019-05-15T14:05:44.994Z,100648.33
2019-05-15T14:08:14.370Z,100612.25
2019-05-15T14:10:45.593Z,100619.99
2019-05-15T14:13:15.343Z,100628.59
2019-05-15T14:15:45.498Z,100641.13
2019-05-15T14:18:15.341Z,100616.53
2019-05-15T14:20:49.065Z,100596.42
2019-05-15T14:23:19.168Z,100636.11
2019-05-15T14:25:50.130Z,100627.87
2019-05-15T14:28:22.605Z,100550.23
2019-05-15T14:30:54.191Z,100506.88
2019-05-15T14:33:28.985Z,100588.44
2019-05-15T14:36:18.382Z,100610.62
2019-05-15T14:38:53.056Z,100640.89
2019-05-15T14:41:29.096Z,100650.49
2019-05-15T14:44:13.218Z,100672.58
2019-05-15T14:46:32.984Z,100680.38
2019-05-15T14:49:02.731Z,100657.20
2019-05-15T14:51:32.339Z,100678.03
2019-05-15T14:54:02.605Z,100675.81
2019-05-15T14:56:32.376Z,100645.73
2019-05-15T14:59:02.087Z,100625.35
2019-05-15T15:01:31.948Z,100591.47
2019-05-15T15:04:01.837Z,100583.98
2019-05-15T15:06:31.742Z,100575.80
2019-05-15T15:09:01.720Z,100625.35
2019-05-15T15:11:31.561Z,100633.79
2019-05-15T15:14:01.456Z,100578.20
2019-05-15T15:16:31.318Z,100626.29
2019-05-15T15:19:01.284Z,100660.98
2019-05-15T15:21:31.230Z,100619.13
2019-05-15T15:24:01.066Z,100652.80
2019-05-15T15:26:32.215Z,100705.99
2019-05-15T15:29:02.056Z,100673.64
2019-05-15T15:31:31.739Z,100679.45
2019-05-15T15:34:01.653Z,100690.52
2019-05-15T15:36:31.614Z,100676.70
2019-05-15T15:39:01.471Z,100675.91
2019-05-15T15:41:32.557Z,100674.60
2019-05-15T15:44:03.676Z,100665.05
2019-05-15T15:46:33.577Z,100675.81
2019-05-15T15:49:03.549Z,100673.58
2019-05-15T15:51:33.302Z,100676.84
2019-05-15T15:54:03.058Z,100656.96
2019-05-15T15:56:34.206Z,100649.85
2019-05-15T15:59:03.982Z,100660.98
2019-05-15T16:01:36.118Z,100644.82
2019-05-15T16:04:08.552Z,100656.32
2019-05-15T16:06:38.955Z,100674.53
2019-05-15T16:09:10.545Z,100681.98
2019-05-15T16:11:40.329Z,100661.13
2019-05-15T16:14:10.340Z,100667.05
2019-05-15T16:16:40.230Z,100673.56
2019-05-15T16:19:10.076Z,100701.68
2019-05-15T16:21:39.890Z,100696.23
2019-05-15T16:24:17.160Z,100701.95
2019-05-15T16:26:42.589Z,100689.84
2019-05-15T16:29:12.528Z,100700.30
2019-05-15T16:31:42.663Z,100728.92
2019-05-15T16:34:12.614Z,100729.01
2019-05-15T16:36:42.499Z,100739.70
2019-05-15T16:39:12.402Z,100733.03
2019-05-15T16:41:42.246Z,100730.41
2019-05-15T16:44:12.024Z,100737.82
2019-05-15T16:46:42.190Z,100736.23
2019-05-15T16:49:11.959Z,100732.04
2019-05-15T16:51:43.136Z,100733.89
2019-05-15T16:54:12.919Z,100730.31
2019-05-15T16:56:43.872Z,100725.31
2019-05-15T16:59:13.665Z,100727.06
2019-05-15T17:01:43.946Z,100722.78
2019-05-15T17:04:14.956Z,100709.47
2019-05-15T17:06:44.641Z,100700.03
2019-05-15T17:09:21.281Z,100706.31
2019-05-15T17:11:49.007Z,100735.56
2019-05-15T17:14:19.781Z,100755.36
2019-05-15T17:16:49.137Z,100753.55
2019-05-15T17:19:20.211Z,100759.73
2019-05-15T17:21:50.085Z,100762.00
2019-05-15T17:24:19.953Z,100747.38
2019-05-15T17:26:49.653Z,100735.20
2019-05-15T17:29:19.849Z,100735.56
2019-05-15T17:31:49.771Z,100727.70
2019-05-15T17:34:19.564Z,100719.03
2019-05-15T17:36:49.349Z,100714.66
2019-05-15T17:39:33.458Z,100700.22
2019-05-15T17:41:50.646Z,100694.92
2019-05-15T17:44:22.138Z,100683.84
2019-05-15T17:46:51.968Z,100688.92
2019-05-15T17:49:21.953Z,100705.30
2019-05-15T17:51:51.823Z,100710.60
2019-05-15T17:54:21.718Z,100712.03
2019-05-15T17:56:51.483Z,100737.33
2019-05-15T17:59:21.333Z,100770.58
2019-05-15T18:01:52.480Z,100782.52
2019-05-15T18:04:22.276Z,100797.61
2019-05-15T18:06:51.970Z,100786.37
2019-05-15T18:09:21.841Z,100793.52
2019-05-15T18:11:51.707Z,100791.94
2019-05-15T18:14:21.418Z,100778.08
2019-05-15T18:16:52.496Z,100776.13
2019-05-15T18:19:22.401Z,100771.52
2019-05-15T18:21:52.203Z,100769.26
2019-05-15T18:24:22.141Z,100773.19
2019-05-15T18:26:52.042Z,100774.49
2019-05-15T18:29:21.883Z,100780.16
2019-05-15T18:31:51.777Z,100787.97
2019-05-15T18:34:21.587Z,100797.14
2019-05-15T18:36:52.859Z,100812.53
2019-05-15T18:39:22.526Z,100830.20
2019-05-15T18:41:52.348Z,100834.77
2019-05-15T18:44:22.201Z,100839.97
2019-05-15T18:46:52.074Z,100839.92
2019-05-15T18:49:21.789Z,100814.52
2019-05-15T18:51:51.761Z,100843.66
2019-05-15T18:54:21.525Z,100843.39
2019-05-15T18:56:51.252Z,100826.79
2019-05-15T18:59:21.112Z,100820.67
2019-05-15T19:01:50.970Z,100815.98
2019-05-15T19:04:20.682Z,100818.97
2019-05-15T19:06:50.462Z,100815.41
2019-05-15T19:09:20.422Z,100806.36
2019-05-15T19:11:50.439Z,100796.01
2019-05-15T19:14:21.488Z,100792.95
2019-05-15T19:16:51.388Z,100785.91
2019-05-15T19:19:22.461Z,100792.81
2019-05-15T19:21:52.376Z,100784.96
2019-05-15T19:24:22.289Z,100785.66
2019-05-15T19:26:52.521Z,100784.85
2019-05-15T19:29:22.437Z,100785.33
2019-05-15T19:31:52.543Z,100791.86
2019-05-15T19:34:23.794Z,100795.68
2019-05-15T19:36:53.710Z,100806.95
2019-05-15T19:39:23.672Z,100816.07
2019-05-15T19:41:53.538Z,100816.28
2019-05-15T19:44:23.524Z,100821.98
2019-05-15T19:46:53.588Z,100823.41
2019-05-15T19:49:23.515Z,100814.34
2019-05-15T19:51:53.469Z,100794.46
2019-05-15T19:54:23.454Z,100781.99
2019-05-15T19:56:53.278Z,100778.17
2019-05-15T19:59:24.564Z,100760.95
2019-05-15T20:01:54.356Z,100757.87
2019-05-15T20:04:24.143Z,100758.81
2019-05-15T20:06:53.831Z,100762.64
2019-05-15T20:09:23.713Z,100764.31
2019-05-15T20:11:53.679Z,100773.47
2019-05-15T20:14:23.530Z,100780.01
2019-05-15T20:16:54.553Z,100781.89
2019-05-15T20:19:24.459Z,100748.08
2019-05-15T20:21:54.263Z,100725.78
2019-05-15T20:24:24.349Z,100713.91
2019-05-15T20:26:54.090Z,100723.43
2019-05-15T20:29:24.037Z,100726.27
2019-05-15T20:31:55.893Z,100747.20
2019-05-15T20:34:28.729Z,100754.46
2019-05-15T20:36:59.934Z,100758.30
2019-05-15T20:39:29.824Z,100767.80
2019-05-15T20:41:59.637Z,100770.53
2019-05-15T20:44:29.502Z,100766.34
2019-05-15T20:46:59.383Z,100767.39
2019-05-15T20:49:29.305Z,100773.94
2019-05-15T20:51:59.278Z,100780.84
2019-05-15T20:54:29.253Z,100782.14
2019-05-15T20:56:59.145Z,100782.00
2019-05-15T20:59:29.122Z,100771.22
2019-05-15T21:01:59.585Z,100771.95
2019-05-15T21:04:29.620Z,100755.89
2019-05-15T21:07:00.781Z,100742.69
2019-05-15T21:09:30.888Z,100730.34
2019-05-15T21:12:00.801Z,100737.03
2019-05-15T21:14:30.846Z,100721.23
2019-05-15T21:17:00.890Z,100713.28
2019-05-15T21:19:30.644Z,100697.49
2019-05-15T21:22:00.491Z,100688.82
2019-05-15T21:24:30.447Z,100689.01
2019-05-15T21:27:00.295Z,100694.92
2019-05-15T21:29:30.200Z,100693.25
2019-05-15T21:32:00.043Z,100692.42
2019-05-15T21:34:36.865Z,100686.83
2019-05-15T21:37:01.323Z,100697.76
2019-05-15T21:39:31.017Z,100699.09
2019-05-15T21:42:00.954Z,100707.41
2019-05-15T21:44:30.856Z,100705.49
2019-05-15T21:47:00.860Z,100710.72
2019-05-15T21:49:30.765Z,100700.38
2019-05-15T21:52:00.598Z,100700.48
2019-05-15T21:54:30.523Z,100693.25
2019-05-15T21:57:18.672Z,100692.67
2019-05-15T21:59:32.062Z,100691.33
2019-05-15T22:02:02.208Z,100690.28
2019-05-15T22:04:31.940Z,100689.33
2019-05-15T22:07:01.806Z,100692.53
2019-05-15T22:09:31.755Z,100698.81
2019-05-15T22:12:01.702Z,100710.72
2019-05-15T22:14:31.444Z,100704.55
2019-05-15T22:17:01.195Z,100706.22
2019-05-15T22:19:31.007Z,100691.47
2019-05-15T22:22:00.751Z,100689.70
2019-05-15T22:24:30.846Z,100697.65
2019-05-15T22:27:01.006Z,100699.06
2019-05-15T22:29:30.757Z,100690.28
2019-05-15T22:32:00.499Z,100704.69
2019-05-15T22:34:30.516Z,100716.81
2019-05-15T22:37:00.356Z,100725.84
2019-05-15T22:39:30.251Z,100731.77
2019-05-15T22:42:00.144Z,100747.81
2019-05-15T22:44:30.207Z,100751.86
2019-05-15T22:46:59.910Z,100744.03
2019-05-15T22:49:29.784Z,100756.95
2019-05-15T22:51:59.533Z,100755.07
2019-05-15T22:54:29.450Z,100746.03
2019-05-15T22:56:59.613Z,100742.20
2019-05-15T22:59:29.295Z,100760.52
2019-05-15T23:01:59.090Z,100772.50
2019-05-15T23:04:29.034Z,100754.34
2019-05-15T23:06:59.202Z,100737.66
2019-05-15T23:09:28.837Z,100732.80
2019-05-15T23:11:58.956Z,100718.89
2019-05-15T23:14:28.873Z,100692.94
2019-05-15T23:16:59.926Z,100678.50
2019-05-15T23:19:29.826Z,100688.75
2019-05-15T23:21:59.659Z,100695.55
2019-05-15T23:24:29.671Z,100694.61
2019-05-15T23:26:59.392Z,100693.93
2019-05-15T23:29:29.264Z,100706.06
2019-05-15T23:31:59.283Z,100712.59
2019-05-15T23:34:29.279Z,100716.16
2019-05-15T23:36:59.272Z,100718.20
2019-05-15T23:39:29.584Z,100714.60
2019-05-15T23:41:59.530Z,100719.67
2019-05-15T23:44:29.372Z,100720.72
2019-05-15T23:46:59.219Z,100726.05
2019-05-15T23:49:29.047Z,100733.00
2019-05-15T23:51:58.971Z,100737.98
2019-05-15T23:54:28.823Z,100751.61
2019-05-15T23:56:58.702Z,100756.95
2019-05-15T23:59:28.628Z,100761.67
